Página principal
METAR-TAF:

METAR-TAF

Aeroportos :

Hagåtña, Guam, Estados Unidos

latitude: 13-29N, longitude: 144-48E, altura: 91 m

Observação actual do tempo

O boletim foi feito há 19 minutos, às 02:54 UTC
Vento 9 kt de es-nordeste com rajadas de 18 kt
Temperatura 30°C
Humidade 59%
Pressão 1012 hPa
Visibilidade: 16.1 km
Céu limpo

METAR: PGUM 190254Z 07009G18KT 10SM CLR 30/21 A2988 RMK AO2 SLP111 T03000206 58022

Hora: 13:13 (03:13 UTC)

Previsão

O boletim foi feito há 3 horas e 41 minutos, às 23:32 UTC
Previsão válida de 19 às 00 UTC a 20 às 06 UTC
Vento 11 kt de este
Visibilidade: 10 km
Poucas nuvensa uma altura de 2000 ft
Nuvens dispersasa uma altura de 4000 ft

TAF: PGUM 182332Z 1900/2006 08011KT P6SM FEW020 SCT040

Observações e previsões do tempo de mais de 4000 aeroportos (mensagens METAR e TAF).

As estações disponíveis são os pontos amarelos e vermelhos sobre o mapa.

Mova o rato sobre o mapa para ver o nome da estação.

Depois clique no ponto para visualizar as observações e previsões meteorológicas.

Para alterar o mapa : clique nos botões verdes com uma cruz preta para aumentar o zoom; no botão verde com uma pitada de zoom; ou nas setas verdes para mapas adjacentes.


METAR-TAF: